Time;durP1;ratioP1;P1;durP2;ratioP2;P2;SDS_P1;SDS_P2;PMS_P1;PMS_P2;Temp;Humidity;BMP_temperature;BMP_pressure;BME280_temperature;BME280_humidity;BME280_pressure;Samples;Min_cycle;Max_cycle;Signal;HPM_P1;HPM_P2
2023/05/21 00:00:19;;;;;;;37.67;33.75;;;15.90;99.90;;;;;;5266394;28;20028;-69
2023/05/21 00:02:50;;;;;;;39.65;35.67;;;15.70;99.90;;;;;;5263203;28;20024;-69
2023/05/21 00:05:21;;;;;;;38.58;34.50;;;15.70;99.90;;;;;;5264074;28;20026;-69
2023/05/21 00:07:53;;;;;;;38.80;34.80;;;15.70;99.90;;;;;;5264108;28;20020;-69
2023/05/21 00:10:24;;;;;;;38.45;34.28;;;15.60;99.90;;;;;;5263919;28;20032;-69
2023/05/21 00:12:55;;;;;;;36.38;32.70;;;15.70;99.90;;;;;;5263703;28;20024;-69
2023/05/21 00:15:26;;;;;;;36.75;32.90;;;15.80;99.90;;;;;;5264210;28;20028;-69
2023/05/21 00:17:56;;;;;;;36.95;32.63;;;15.80;99.90;;;;;;5263694;28;20024;-69
2023/05/21 00:20:28;;;;;;;39.33;34.75;;;15.80;99.90;;;;;;5264283;28;20105;-69
2023/05/21 00:23:02;;;;;;;39.15;35.42;;;15.80;99.90;;;;;;5263577;28;20369;-69
2023/05/21 00:25:33;;;;;;;37.13;33.35;;;15.80;99.90;;;;;;5264048;28;20055;-69
2023/05/21 00:28:04;;;;;;;35.30;31.83;;;15.70;99.90;;;;;;5263732;28;20021;-69
2023/05/21 00:30:35;;;;;;;44.05;32.45;;;15.70;99.90;;;;;;5264109;28;20028;-69
2023/05/21 00:33:06;;;;;;;35.60;32.05;;;15.80;99.90;;;;;;5263564;28;20117;-69
2023/05/21 00:35:37;;;;;;;36.75;33.00;;;15.70;99.90;;;;;;5263868;28;20101;-69
2023/05/21 00:38:07;;;;;;;37.92;34.22;;;15.60;99.90;;;;;;5265535;28;20036;-69
2023/05/21 00:40:40;;;;;;;38.83;34.13;;;15.60;99.90;;;;;;5267728;28;20403;-69
2023/05/21 00:43:13;;;;;;;39.90;35.95;;;15.60;99.90;;;;;;5267362;28;20032;-69
2023/05/21 00:45:45;;;;;;;37.15;32.25;;;15.70;99.90;;;;;;5267596;28;20031;-69
2023/05/21 00:48:16;;;;;;;37.47;33.50;;;15.70;99.90;;;;;;5267144;28;20036;-69
2023/05/21 00:50:48;;;;;;;41.33;34.25;;;15.70;99.90;;;;;;5267300;28;20094;-69
2023/05/21 00:53:21;;;;;;;38.88;34.83;;;15.60;99.90;;;;;;5267319;28;20493;-70
2023/05/21 00:55:55;;;;;;;37.80;33.97;;;15.60;99.90;;;;;;5264316;28;20036;-70
2023/05/21 00:58:27;;;;;;;38.83;34.75;;;15.70;99.90;;;;;;5265094;28;20382;-69
2023/05/21 01:01:02;;;;;;;40.63;34.38;;;15.60;99.90;;;;;;5267255;28;20123;-69
2023/05/21 01:03:37;;;;;;;40.40;36.30;;;15.60;99.90;;;;;;5267623;28;20036;-68
2023/05/21 01:06:09;;;;;;;43.42;38.88;;;15.60;99.90;;;;;;5268443;28;20040;-67
2023/05/21 01:08:40;;;;;;;42.00;38.08;;;15.60;99.90;;;;;;5267732;28;20708;-69
2023/05/21 01:11:13;;;;;;;44.55;40.30;;;15.60;99.90;;;;;;5267126;28;20464;-68
2023/05/21 01:13:46;;;;;;;43.30;38.80;;;15.50;99.90;;;;;;5267164;28;20149;-68
2023/05/21 01:16:17;;;;;;;42.47;38.30;;;15.50;99.90;;;;;;5266811;28;20020;-69
2023/05/21 01:18:48;;;;;;;44.40;39.70;;;15.50;99.90;;;;;;5266518;28;20084;-68
2023/05/21 01:21:21;;;;;;;44.13;40.08;;;15.50;99.90;;;;;;5266891;28;20116;-68
2023/05/21 01:23:52;;;;;;;43.33;38.85;;;15.50;99.90;;;;;;5264159;28;20035;-68
2023/05/21 01:26:24;;;;;;;44.20;39.75;;;15.50;99.90;;;;;;5266493;28;20417;-68
2023/05/21 01:28:55;;;;;;;42.95;37.85;;;15.50;99.90;;;;;;5266423;28;20020;-68
2023/05/21 01:31:33;;;;;;;45.08;40.38;;;15.40;99.90;;;;;;5266685;28;20027;-69
2023/05/21 01:34:06;;;;;;;44.33;39.65;;;15.50;99.90;;;;;;5266365;28;20344;-68
2023/05/21 01:36:46;;;;;;;44.30;39.47;;;15.40;99.90;;;;;;5266545;28;20028;-69
2023/05/21 01:39:38;;;;;;;44.92;40.15;;;15.30;99.90;;;;;;5266297;28;20028;-69
2023/05/21 01:42:10;;;;;;;42.47;38.00;;;15.40;99.90;;;;;;5267335;28;20109;-67
2023/05/21 01:44:41;;;;;;;42.70;38.35;;;15.40;99.90;;;;;;5266792;27;20031;-68
2023/05/21 01:47:12;;;;;;;45.20;37.83;;;15.40;99.90;;;;;;5266561;28;20541;-68
2023/05/21 01:49:44;;;;;;;43.70;38.85;;;15.40;99.90;;;;;;5265694;28;20051;-68
2023/05/21 01:52:15;;;;;;;42.72;34.83;;;15.50;99.90;;;;;;5265717;28;20036;-69
2023/05/21 01:54:46;;;;;;;40.17;36.03;;;15.40;99.90;;;;;;5266230;28;20064;-69
2023/05/21 01:57:17;;;;;;;41.70;37.42;;;15.40;99.90;;;;;;5266051;28;20120;-68
2023/05/21 01:59:48;;;;;;;44.60;36.88;;;15.40;99.90;;;;;;5266040;28;20043;-69
2023/05/21 02:02:19;;;;;;;40.65;36.28;;;15.50;99.90;;;;;;5267241;28;20020;-69
2023/05/21 02:04:50;;;;;;;38.33;34.35;;;15.40;99.90;;;;;;5262913;28;20028;-68
2023/05/21 02:07:21;;;;;;;42.70;38.10;;;15.40;99.90;;;;;;5265887;28;20383;-68
2023/05/21 02:09:52;;;;;;;42.92;38.33;;;15.30;99.90;;;;;;5265857;28;20025;-69
2023/05/21 02:12:22;;;;;;;40.95;36.60;;;15.40;99.90;;;;;;5265923;28;20043;-69
2023/05/21 02:14:55;;;;;;;39.20;35.13;;;15.30;99.90;;;;;;5265722;28;20099;-67
2023/05/21 02:17:30;;;;;;;42.05;37.55;;;15.30;99.90;;;;;;5263702;28;20029;-68
2023/05/21 02:20:12;;;;;;;49.20;37.58;;;15.20;99.90;;;;;;5265635;28;20057;-69
2023/05/21 02:22:45;;;;;;;41.28;37.00;;;15.30;99.90;;;;;;5265558;28;20113;-68
2023/05/21 02:25:18;;;;;;;40.67;36.28;;;15.40;99.90;;;;;;5265561;28;20028;-68
2023/05/21 02:27:52;;;;;;;40.40;36.40;;;15.40;99.90;;;;;;5265881;28;20020;-69
2023/05/21 02:30:23;;;;;;;39.47;35.53;;;15.40;99.90;;;;;;5265421;28;20028;-69
2023/05/21 02:32:54;;;;;;;39.30;35.38;;;15.40;99.90;;;;;;5265107;28;20081;-69
2023/05/21 02:35:25;;;;;;;39.60;35.38;;;15.30;99.90;;;;;;5263083;28;20031;-69
2023/05/21 02:37:57;;;;;;;41.03;36.42;;;15.30;99.90;;;;;;5265304;28;20446;-68
2023/05/21 02:40:28;;;;;;;40.40;36.80;;;15.30;99.90;;;;;;5266619;28;20038;-67
2023/05/21 02:42:59;;;;;;;40.72;36.33;;;15.30;99.90;;;;;;5266903;28;20032;-67
2023/05/21 02:45:30;;;;;;;42.75;38.35;;;15.30;99.90;;;;;;5266087;28;20392;-67
2023/05/21 02:48:01;;;;;;;42.88;38.33;;;15.30;99.90;;;;;;5265886;28;20429;-69
2023/05/21 02:50:31;;;;;;;42.35;37.95;;;15.30;99.90;;;;;;5265106;28;20056;-69
2023/05/21 02:53:03;;;;;;;42.53;38.17;;;15.30;99.90;;;;;;5264530;28;20039;-69
2023/05/21 02:55:33;;;;;;;42.33;38.22;;;15.30;99.90;;;;;;5265139;28;20028;-68
2023/05/21 02:58:04;;;;;;;40.47;36.45;;;15.30;99.90;;;;;;5264827;28;20114;-68
2023/05/21 03:00:35;;;;;;;41.45;37.28;;;15.30;99.90;;;;;;5264205;28;20043;-67
2023/05/21 03:03:06;;;;;;;43.10;38.75;;;15.30;99.90;;;;;;5264951;28;20028;-68
2023/05/21 03:05:37;;;;;;;43.15;38.47;;;15.30;99.90;;;;;;5264776;28;20093;-69
2023/05/21 03:08:07;;;;;;;42.00;37.95;;;15.40;99.90;;;;;;5264792;28;20109;-69
2023/05/21 03:10:38;;;;;;;43.33;38.72;;;15.40;99.90;;;;;;5265882;28;20103;-69
2023/05/21 03:13:09;;;;;;;43.17;38.47;;;15.30;99.90;;;;;;5265161;28;20028;-69
2023/05/21 03:15:40;;;;;;;43.30;38.80;;;15.30;99.90;;;;;;5264855;28;20085;-69
2023/05/21 03:18:11;;;;;;;43.22;38.55;;;15.30;99.90;;;;;;5264354;28;20024;-69
2023/05/21 03:20:45;;;;;;;43.63;38.97;;;15.30;99.90;;;;;;5266718;28;20032;-69
2023/05/21 03:23:16;;;;;;;43.10;38.45;;;15.40;99.90;;;;;;5264101;28;20028;-69
2023/05/21 03:25:47;;;;;;;41.90;37.20;;;15.30;99.90;;;;;;5264512;28;20046;-69
2023/05/21 03:28:18;;;;;;;42.80;38.53;;;15.30;99.90;;;;;;5264374;28;20069;-69
2023/05/21 03:30:49;;;;;;;45.67;38.95;;;15.30;99.90;;;;;;5264515;28;20135;-68
2023/05/21 03:33:21;;;;;;;41.63;36.05;;;15.40;99.90;;;;;;5263751;28;20495;-69
2023/05/21 03:35:53;;;;;;;41.88;37.28;;;15.30;99.90;;;;;;5264208;28;20036;-69
2023/05/21 03:38:24;;;;;;;39.83;35.63;;;15.40;99.90;;;;;;5264489;28;20020;-69
2023/05/21 03:40:54;;;;;;;40.00;35.72;;;15.40;99.90;;;;;;5264210;28;20042;-69
2023/05/21 03:43:25;;;;;;;39.92;35.58;;;15.40;99.90;;;;;;5262095;28;20020;-69
2023/05/21 03:45:56;;;;;;;39.38;35.20;;;15.40;99.90;;;;;;5262778;28;20051;-69
2023/05/21 03:48:27;;;;;;;42.03;36.80;;;15.60;99.90;;;;;;5264178;28;20098;-69
2023/05/21 03:50:57;;;;;;;40.60;36.10;;;15.40;99.90;;;;;;5263486;28;20055;-69
2023/05/21 03:53:28;;;;;;;40.67;36.72;;;15.40;99.90;;;;;;5263897;28;20043;-69
2023/05/21 03:55:59;;;;;;;40.40;36.20;;;15.50;99.90;;;;;;5264066;28;20472;-67
2023/05/21 03:58:30;;;;;;;40.92;36.53;;;15.40;99.90;;;;;;5266464;28;20060;-68
2023/05/21 04:01:01;;;;;;;39.35;35.20;;;15.40;99.90;;;;;;5263441;28;20028;-69
2023/05/21 04:03:34;;;;;;;39.70;35.45;;;15.40;99.90;;;;;;5264354;28;20042;-69
2023/05/21 04:06:05;;;;;;;37.25;33.35;;;15.40;99.90;;;;;;5266674;28;20032;-69
2023/05/21 04:08:36;;;;;;;38.25;34.58;;;15.50;99.90;;;;;;5263951;28;20123;-67
2023/05/21 04:11:07;;;;;;;40.15;36.00;;;15.40;99.90;;;;;;5264083;28;20093;-69
2023/05/21 04:13:38;;;;;;;39.70;35.70;;;15.40;99.90;;;;;;5268392;28;20027;-69
2023/05/21 04:16:13;;;;;;;37.25;33.45;;;15.60;99.90;;;;;;5269978;28;20032;-67
2023/05/21 04:18:46;;;;;;;39.47;33.45;;;15.60;99.90;;;;;;5266550;28;20550;-69
2023/05/21 04:21:17;;;;;;;41.72;34.15;;;15.60;99.90;;;;;;5267691;28;20047;-69
2023/05/21 04:23:48;;;;;;;37.83;33.85;;;15.60;99.90;;;;;;5267850;28;20024;-69
2023/05/21 04:26:19;;;;;;;40.30;35.65;;;15.70;99.90;;;;;;5267813;28;20028;-68
2023/05/21 04:28:50;;;;;;;39.38;35.40;;;15.50;99.90;;;;;;5270486;28;20393;-69
2023/05/21 04:31:22;;;;;;;40.30;35.92;;;15.50;99.90;;;;;;5267539;28;20499;-69
2023/05/21 04:33:52;;;;;;;38.85;34.35;;;15.60;99.90;;;;;;5269223;28;20023;-69
2023/05/21 04:36:23;;;;;;;39.47;35.35;;;15.50;99.90;;;;;;5268790;28;20396;-69
2023/05/21 04:38:54;;;;;;;40.17;36.25;;;15.50;99.90;;;;;;5267256;28;20036;-69
2023/05/21 04:41:25;;;;;;;46.10;40.30;;;15.50;99.90;;;;;;5267868;28;20082;-69
2023/05/21 04:43:56;;;;;;;42.42;37.50;;;15.50;99.90;;;;;;5267362;28;20028;-68
2023/05/21 04:46:27;;;;;;;41.50;37.25;;;15.40;99.90;;;;;;5267622;28;20028;-69
2023/05/21 04:49:01;;;;;;;56.83;50.80;;;15.40;99.90;;;;;;5267033;28;20052;-69
2023/05/21 04:51:32;;;;;;;43.67;39.05;;;15.40;99.90;;;;;;5267374;28;20064;-67
2023/05/21 04:54:03;;;;;;;39.88;35.55;;;15.50;99.90;;;;;;5267561;28;20224;-69
2023/05/21 04:56:34;;;;;;;39.13;35.05;;;15.60;99.90;;;;;;5268920;28;20028;-69
2023/05/21 04:59:05;;;;;;;42.85;38.45;;;15.50;99.90;;;;;;5269912;28;20447;-68
2023/05/21 05:01:37;;;;;;;44.20;38.90;;;15.70;99.90;;;;;;5267533;28;20032;-67
2023/05/21 05:04:08;;;;;;;41.00;36.50;;;15.70;99.90;;;;;;5267139;28;20051;-67
2023/05/21 05:06:39;;;;;;;38.97;34.20;;;15.70;99.90;;;;;;5266987;28;20372;-68
2023/05/21 05:09:10;;;;;;;41.78;37.28;;;15.70;99.90;;;;;;5267008;28;20036;-68
2023/05/21 05:11:41;;;;;;;36.85;32.97;;;15.60;99.90;;;;;;5266994;28;20035;-67
2023/05/21 05:14:12;;;;;;;36.75;32.65;;;15.60;99.90;;;;;;5266996;28;20036;-69
2023/05/21 05:16:42;;;;;;;38.13;33.38;;;15.60;99.90;;;;;;5266747;28;20499;-68
2023/05/21 05:19:13;;;;;;;35.85;32.20;;;15.60;99.90;;;;;;5266673;28;20498;-68
2023/05/21 05:21:44;;;;;;;41.75;37.28;;;15.60;99.90;;;;;;5266684;28;20071;-69
2023/05/21 05:24:15;;;;;;;42.85;38.75;;;15.80;99.90;;;;;;5265516;28;20424;-68
2023/05/21 05:26:46;;;;;;;46.55;38.58;;;15.70;99.90;;;;;;5266059;28;20028;-69
2023/05/21 05:29:16;;;;;;;52.10;45.05;;;15.90;99.90;;;;;;5266677;28;20028;-69
2023/05/21 05:31:47;;;;;;;38.97;34.80;;;15.80;99.90;;;;;;5266632;28;20035;-70
2023/05/21 05:34:18;;;;;;;35.58;31.83;;;15.80;99.90;;;;;;5266270;28;20023;-68
2023/05/21 05:36:49;;;;;;;36.03;32.55;;;15.80;99.90;;;;;;5266187;28;20021;-68
2023/05/21 05:39:20;;;;;;;44.17;38.35;;;15.70;99.90;;;;;;5266178;28;20047;-68
2023/05/21 05:41:51;;;;;;;42.75;38.42;;;15.60;99.90;;;;;;5265826;28;20024;-68
2023/05/21 05:44:21;;;;;;;40.35;36.45;;;15.70;99.90;;;;;;5266074;28;20024;-69
2023/05/21 05:46:52;;;;;;;37.42;33.85;;;15.70;99.90;;;;;;5266197;28;20042;-69
2023/05/21 05:49:23;;;;;;;38.15;34.72;;;15.70;99.90;;;;;;5264664;28;20044;-68
2023/05/21 05:51:55;;;;;;;38.03;34.15;;;15.70;99.90;;;;;;5265655;28;20081;-69
2023/05/21 05:54:26;;;;;;;41.38;37.00;;;15.70;99.90;;;;;;5263886;28;20044;-69
2023/05/21 05:56:57;;;;;;;46.17;41.20;;;15.70;99.90;;;;;;5267970;28;20020;-70
2023/05/21 05:59:27;;;;;;;43.45;38.60;;;15.70;99.90;;;;;;5269524;28;20025;-69
2023/05/21 06:01:59;;;;;;;37.92;34.20;;;15.90;99.90;;;;;;5269907;28;20468;-69
2023/05/21 06:04:30;;;;;;;36.33;32.92;;;15.80;99.90;;;;;;5269896;28;20564;-68
2023/05/21 06:07:01;;;;;;;34.35;30.83;;;16.00;99.90;;;;;;5269799;28;20028;-69
2023/05/21 06:09:32;;;;;;;36.97;33.50;;;16.00;99.90;;;;;;5270169;28;20012;-67
2023/05/21 06:12:04;;;;;;;36.35;32.88;;;16.10;99.90;;;;;;5269787;28;20036;-69
2023/05/21 06:14:34;;;;;;;37.13;33.80;;;16.00;99.90;;;;;;5269529;28;20028;-68
2023/05/21 06:17:05;;;;;;;42.55;38.05;;;16.10;99.90;;;;;;5269596;28;20038;-67
2023/05/21 06:19:36;;;;;;;39.83;36.13;;;16.10;99.90;;;;;;5269369;28;20063;-69
2023/05/21 06:22:07;;;;;;;37.47;33.78;;;16.00;99.90;;;;;;5269305;28;20035;-69
2023/05/21 06:24:37;;;;;;;39.53;35.70;;;16.10;99.90;;;;;;5269198;28;20030;-67
2023/05/21 06:27:08;;;;;;;35.35;32.13;;;16.20;99.90;;;;;;5269479;28;20032;-67
2023/05/21 06:29:39;;;;;;;37.22;33.88;;;16.10;99.90;;;;;;5269545;28;20497;-68
2023/05/21 06:32:10;;;;;;;35.28;31.83;;;16.20;99.90;;;;;;5269458;28;20104;-68
2023/05/21 06:34:41;;;;;;;37.25;34.13;;;16.30;99.90;;;;;;5269315;28;20528;-69
2023/05/21 06:37:12;;;;;;;40.05;35.95;;;16.30;99.90;;;;;;5269139;28;20032;-69
2023/05/21 06:39:42;;;;;;;48.80;43.72;;;16.30;99.90;;;;;;5269156;28;20039;-69
2023/05/21 06:42:13;;;;;;;42.92;38.50;;;16.30;99.90;;;;;;5269130;28;20077;-69
2023/05/21 06:44:44;;;;;;;40.08;36.67;;;16.30;99.90;;;;;;5269157;28;20024;-69
2023/05/21 06:47:15;;;;;;;40.55;36.75;;;16.30;99.90;;;;;;5268948;28;20085;-69
2023/05/21 06:49:45;;;;;;;38.40;35.08;;;16.40;99.90;;;;;;5268558;28;20564;-66
2023/05/21 06:52:16;;;;;;;38.88;35.35;;;16.50;99.90;;;;;;5268842;28;20380;-69
2023/05/21 06:54:47;;;;;;;36.65;33.38;;;16.50;99.90;;;;;;5268882;28;20028;-69
2023/05/21 06:57:18;;;;;;;40.70;36.92;;;16.50;99.90;;;;;;5268745;28;20077;-69
2023/05/21 06:59:49;;;;;;;37.92;34.58;;;16.50;99.90;;;;;;5266862;28;20387;-68
2023/05/21 07:02:19;;;;;;;40.83;36.90;;;16.50;99.90;;;;;;5257259;28;20029;-69
2023/05/21 07:04:52;;;;;;;41.53;37.42;;;16.60;99.90;;;;;;5247629;28;20028;-69
2023/05/21 07:07:23;;;;;;;39.33;35.67;;;16.70;99.90;;;;;;5247565;28;20048;-69
2023/05/21 07:09:53;;;;;;;42.55;38.40;;;16.60;99.90;;;;;;5247512;28;20563;-67
2023/05/21 07:12:24;;;;;;;39.50;36.22;;;16.80;99.90;;;;;;5255941;28;20028;-67
2023/05/21 07:14:55;;;;;;;39.05;35.38;;;16.90;99.90;;;;;;5258097;28;20099;-68
2023/05/21 07:17:26;;;;;;;39.30;36.10;;;17.00;99.90;;;;;;5268247;28;20027;-69
2023/05/21 07:19:57;;;;;;;40.60;37.00;;;17.00;99.90;;;;;;5268210;28;20387;-68
2023/05/21 07:22:27;;;;;;;42.33;38.53;;;17.10;99.90;;;;;;5268549;28;20115;-69
2023/05/21 07:24:58;;;;;;;39.63;36.22;;;17.20;99.90;;;;;;5268702;28;20035;-69
2023/05/21 07:27:29;;;;;;;41.00;37.15;;;17.30;99.90;;;;;;5262367;28;20036;-66
2023/05/21 07:30:00;;;;;;;42.28;38.10;;;17.50;99.90;;;;;;5258543;28;20031;-69
2023/05/21 07:32:31;;;;;;;38.80;35.55;;;17.70;99.90;;;;;;5250148;28;20391;-67
2023/05/21 07:35:01;;;;;;;39.13;35.28;;;17.80;99.90;;;;;;5257714;28;20103;-69
2023/05/21 07:37:32;;;;;;;38.17;34.55;;;18.00;99.90;;;;;;5264558;28;20425;-67
2023/05/21 07:40:05;;;;;;;40.53;36.55;;;17.90;99.90;;;;;;5267073;28;20097;-67
2023/05/21 07:42:36;;;;;;;38.92;35.67;;;17.80;99.90;;;;;;5268226;28;20437;-69
2023/05/21 07:45:07;;;;;;;37.35;33.88;;;17.50;99.90;;;;;;5268210;28;20028;-67
2023/05/21 07:47:37;;;;;;;40.13;36.33;;;17.50;99.90;;;;;;5267596;28;20032;-69
2023/05/21 07:50:09;;;;;;;37.55;34.08;;;17.50;99.90;;;;;;5267720;28;20101;-69
2023/05/21 07:52:40;;;;;;;37.40;33.90;;;17.50;99.90;;;;;;5267920;28;20036;-70
2023/05/21 07:55:11;;;;;;;37.38;33.47;;;17.90;99.90;;;;;;5267927;28;20418;-69
2023/05/21 07:57:41;;;;;;;37.47;34.38;;;18.20;99.90;;;;;;5267943;28;20086;-69
2023/05/21 08:00:13;;;;;;;36.30;32.97;;;17.90;99.90;;;;;;5267782;28;20510;-68
2023/05/21 08:02:44;;;;;;;35.67;32.47;;;18.10;99.90;;;;;;5267907;28;20024;-67
2023/05/21 08:05:17;;;;;;;34.42;31.73;;;17.90;99.90;;;;;;5267759;28;20020;-68
2023/05/21 08:07:48;;;;;;;37.72;34.20;;;18.00;99.90;;;;;;5267861;28;20028;-69
2023/05/21 08:10:21;;;;;;;36.38;33.28;;;18.10;99.90;;;;;;5267816;28;20096;-67
2023/05/21 08:12:55;;;;;;;38.00;34.67;;;18.10;99.90;;;;;;5267801;28;20024;-67
2023/05/21 08:15:25;;;;;;;35.10;31.98;;;18.10;99.90;;;;;;5267663;28;20380;-69
2023/05/21 08:17:59;;;;;;;34.05;31.13;;;18.20;99.90;;;;;;5267607;28;20024;-67
2023/05/21 08:20:34;;;;;;;38.08;34.60;;;18.20;99.90;;;;;;5267631;28;20047;-67
2023/05/21 08:23:22;;;;;;;34.58;31.38;;;18.40;99.90;;;;;;5267912;28;20028;-67
2023/05/21 08:25:53;;;;;;;34.22;30.85;;;18.30;99.90;;;;;;5267604;28;20101;-69
2023/05/21 08:28:24;;;;;;;35.17;31.83;;;18.30;99.90;;;;;;5267846;28;20032;-66
2023/05/21 08:30:57;;;;;;;35.15;31.50;;;18.30;99.90;;;;;;5267819;28;20370;-67
2023/05/21 08:33:36;;;;;;;34.67;31.45;;;18.30;99.90;;;;;;5267624;28;20107;-67
2023/05/21 08:36:07;;;;;;;33.47;30.77;;;18.50;99.90;;;;;;5267664;28;20363;-67
2023/05/21 08:38:44;;;;;;;32.20;29.35;;;18.60;99.90;;;;;;5267382;28;20028;-67
2023/05/21 08:41:22;;;;;;;37.08;33.58;;;18.70;99.90;;;;;;5267606;28;20040;-67
2023/05/21 08:44:02;;;;;;;36.05;32.50;;;19.00;99.90;;;;;;5267429;28;20024;-67
2023/05/21 08:46:37;;;;;;;38.30;34.75;;;18.90;99.90;;;;;;5267557;28;20036;-69
2023/05/21 08:49:13;;;;;;;34.97;31.90;;;19.00;99.90;;;;;;5267237;28;20563;-67
2023/05/21 08:51:46;;;;;;;33.88;31.17;;;19.10;99.90;;;;;;5267449;28;20024;-67
2023/05/21 08:54:17;;;;;;;34.53;31.58;;;19.00;99.90;;;;;;5267401;28;20016;-67
2023/05/21 08:56:52;;;;;;;36.95;33.45;;;19.10;99.90;;;;;;5266163;28;20383;-67
2023/05/21 08:59:28;;;;;;;34.88;31.67;;;19.40;99.90;;;;;;5269541;28;20077;-67
2023/05/21 09:02:03;;;;;;;36.97;33.67;;;19.60;99.90;;;;;;5271095;28;20398;-67
2023/05/21 09:04:37;;;;;;;36.55;33.17;;;19.60;99.90;;;;;;5271113;28;20050;-67
2023/05/21 09:07:10;;;;;;;36.50;33.40;;;19.70;99.90;;;;;;5270961;28;20020;-67
2023/05/21 09:09:55;;;;;;;37.20;33.95;;;19.60;99.90;;;;;;5270830;28;20078;-67
2023/05/21 09:12:31;;;;;;;34.92;31.45;;;19.60;99.90;;;;;;5270780;28;20116;-67
2023/05/21 09:15:03;;;;;;;34.05;31.02;;;19.40;99.90;;;;;;5270798;28;20028;-67
2023/05/21 09:17:35;;;;;;;38.50;34.90;;;19.50;99.90;;;;;;5269686;28;20502;-68
2023/05/21 09:20:12;;;;;;;35.78;32.60;;;19.60;99.90;;;;;;5270659;28;20032;-66
2023/05/21 09:22:44;;;;;;;36.22;33.03;;;19.40;99.90;;;;;;5271028;28;20071;-69
2023/05/21 09:25:24;;;;;;;34.30;31.40;;;19.30;99.90;;;;;;5270770;28;20024;-69
2023/05/21 09:28:00;;;;;;;34.58;31.63;;;19.00;99.90;;;;;;5270796;28;20028;-69
2023/05/21 09:30:31;;;;;;;34.28;31.27;;;19.10;99.90;;;;;;5270749;28;20103;-69
2023/05/21 09:33:02;;;;;;;33.38;30.25;;;19.20;99.90;;;;;;5270849;28;20444;-67
2023/05/21 09:35:34;;;;;;;37.05;33.60;;;19.30;99.90;;;;;;5270475;28;20059;-67
2023/05/21 09:38:08;;;;;;;37.25;33.92;;;19.30;99.90;;;;;;5270503;28;20427;-68
2023/05/21 09:40:45;;;;;;;36.67;32.90;;;19.40;99.90;;;;;;5270371;28;20077;-67
2023/05/21 09:43:16;;;;;;;35.42;32.38;;;19.30;99.90;;;;;;5270386;28;20141;-69
2023/05/21 09:45:51;;;;;;;37.05;33.60;;;19.00;99.90;;;;;;5270308;28;20028;-69
2023/05/21 09:48:42;;;;;;;31.42;28.55;;;19.10;99.90;;;;;;5270296;28;20108;-67
2023/05/21 09:51:14;;;;;;;32.30;29.55;;;19.20;99.90;;;;;;5270266;28;20036;-67
2023/05/21 09:53:59;;;;;;;33.42;30.38;;;19.30;99.90;;;;;;5270129;28;20032;-70
2023/05/21 09:56:30;;;;;;;33.53;30.83;;;19.30;99.90;;;;;;5270268;28;20388;-67
2023/05/21 09:59:05;;;;;;;33.55;30.45;;;19.30;99.90;;;;;;5269903;28;20027;-67
2023/05/21 10:01:37;;;;;;;34.53;31.42;;;19.20;99.90;;;;;;5270004;28;20035;-67
2023/05/21 10:04:08;;;;;;;32.03;28.95;;;19.00;99.90;;;;;;5269994;28;20387;-69
2023/05/21 10:06:43;;;;;;;29.67;26.15;;;19.40;99.90;;;;;;5269873;28;20020;-70
2023/05/21 10:09:17;;;;;;;30.38;27.60;;;19.30;99.90;;;;;;5269509;28;20090;-69
2023/05/21 10:11:51;;;;;;;33.67;28.33;;;19.40;99.90;;;;;;5269701;28;20020;-69
2023/05/21 10:14:26;;;;;;;30.77;27.95;;;19.50;99.90;;;;;;5269523;28;20119;-67
2023/05/21 10:16:59;;;;;;;33.85;30.48;;;19.40;99.90;;;;;;5269716;28;20613;-67
2023/05/21 10:19:35;;;;;;;31.20;28.15;;;19.60;99.90;;;;;;5269361;28;20122;-69
2023/05/21 10:22:07;;;;;;;33.33;30.48;;;19.40;99.90;;;;;;5269617;28;20379;-70
2023/05/21 10:24:39;;;;;;;31.55;28.52;;;19.60;99.90;;;;;;5269555;28;20428;-67
2023/05/21 10:27:12;;;;;;;32.25;29.55;;;19.70;99.90;;;;;;5269395;28;20383;-68
2023/05/21 10:29:44;;;;;;;30.38;27.48;;;19.90;99.90;;;;;;5269320;28;20024;-67
2023/05/21 10:32:15;;;;;;;31.33;28.73;;;20.00;99.90;;;;;;5269361;28;20097;-69
2023/05/21 10:34:48;;;;;;;32.85;30.13;;;20.30;99.90;;;;;;5269196;28;20464;-69
2023/05/21 10:37:23;;;;;;;34.08;31.00;;;20.60;99.90;;;;;;5269336;28;20016;-67
2023/05/21 10:39:55;;;;;;;32.08;29.55;;;21.30;99.90;;;;;;5269299;28;20362;-69
2023/05/21 10:42:28;;;;;;;32.63;29.85;;;21.40;99.90;;;;;;5269303;28;20039;-69
2023/05/21 10:45:31;;;;;;;30.70;28.23;;;21.40;99.90;;;;;;5268250;28;20471;-67
2023/05/21 10:48:30;;;;;;;30.88;27.88;;;21.40;99.90;;;;;;5269174;28;20154;-68
2023/05/21 10:51:23;;;;;;;28.27;25.70;;;21.30;99.90;;;;;;5268972;28;20101;-68
2023/05/21 10:54:18;;;;;;;29.15;26.33;;;21.30;99.90;;;;;;5251385;28;20024;-70
2023/05/21 10:57:07;;;;;;;29.65;27.10;;;21.40;99.90;;;;;;5247920;28;20051;-71
2023/05/21 10:59:44;;;;;;;24.85;22.75;;;21.40;99.90;;;;;;5247921;28;20123;-71
2023/05/21 11:02:18;;;;;;;26.92;24.42;;;21.30;99.90;;;;;;5247832;28;20115;-70
2023/05/21 11:04:57;;;;;;;26.27;23.95;;;21.20;99.90;;;;;;5247646;28;20047;-68
2023/05/21 11:08:00;;;;;;;26.98;24.98;;;21.10;99.90;;;;;;5247917;28;20460;-68
2023/05/21 11:10:39;;;;;;;25.13;22.75;;;21.20;99.90;;;;;;5243399;28;20484;-67
2023/05/21 11:13:15;;;;;;;26.55;24.52;;;21.10;99.90;;;;;;5247748;28;20047;-70
2023/05/21 11:15:58;;;;;;;23.48;21.23;;;21.70;99.90;;;;;;5247590;28;20032;-70
2023/05/21 11:18:34;;;;;;;25.83;23.10;;;22.00;99.90;;;;;;5247280;28;20038;-70
2023/05/21 11:21:08;;;;;;;22.92;20.92;;;21.90;99.90;;;;;;5246835;28;20040;-70
2023/05/21 11:24:01;;;;;;;22.38;18.55;;;22.20;99.90;;;;;;5247513;28;20774;-71
2023/05/21 11:26:47;;;;;;;22.50;20.20;;;22.00;99.90;;;;;;5247370;28;20021;-69
2023/05/21 11:29:18;;;;;;;24.92;22.83;;;21.90;99.90;;;;;;5247385;28;20085;-70
2023/05/21 11:32:01;;;;;;;24.70;22.33;;;21.50;99.90;;;;;;5247325;28;20051;-70
2023/05/21 11:34:44;;;;;;;27.38;25.15;;;21.50;99.90;;;;;;5247278;28;20032;-70
2023/05/21 11:37:27;;;;;;;27.90;25.48;;;21.60;99.90;;;;;;5250830;28;20036;-70
2023/05/21 11:40:19;;;;;;;25.48;23.35;;;22.00;99.90;;;;;;5247278;28;20021;-71
2023/05/21 11:42:53;;;;;;;24.60;22.48;;;22.10;99.90;;;;;;5247083;28;20036;-71
2023/05/21 11:45:29;;;;;;;28.00;25.50;;;22.10;99.90;;;;;;5247544;28;20025;-71
2023/05/21 11:48:01;;;;;;;26.15;23.65;;;22.00;99.90;;;;;;5247016;28;20036;-70
2023/05/21 11:50:33;;;;;;;26.80;24.73;;;22.10;99.90;;;;;;5247094;28;20044;-71
2023/05/21 11:53:07;;;;;;;26.48;24.23;;;22.10;99.90;;;;;;5247114;28;20105;-70
2023/05/21 11:55:42;;;;;;;24.48;22.42;;;22.20;99.90;;;;;;5247140;28;20060;-71
2023/05/21 11:58:18;;;;;;;26.08;23.85;;;22.10;99.90;;;;;;5248773;28;20028;-70
2023/05/21 12:00:50;;;;;;;26.95;24.50;;;22.10;99.90;;;;;;5247298;28;20111;-68
2023/05/21 12:03:25;;;;;;;27.60;25.20;;;22.10;99.90;;;;;;5249561;28;20032;-69
2023/05/21 12:06:04;;;;;;;25.80;23.33;;;22.10;99.90;;;;;;5248354;28;20033;-70
2023/05/21 12:08:37;;;;;;;28.02;25.63;;;21.60;99.90;;;;;;5247231;28;20032;-70
2023/05/21 12:11:08;;;;;;;26.70;24.45;;;21.70;99.90;;;;;;5247147;28;20447;-71
2023/05/21 12:13:39;;;;;;;26.45;24.38;;;21.60;99.90;;;;;;5256984;28;20115;-70
2023/05/21 12:16:10;;;;;;;26.75;24.42;;;21.70;99.90;;;;;;5260567;28;20020;-70
2023/05/21 12:18:41;;;;;;;26.90;24.45;;;22.10;99.90;;;;;;5253524;28;20042;-71
2023/05/21 12:21:12;;;;;;;25.67;23.27;;;22.40;99.90;;;;;;5246728;28;20040;-70
2023/05/21 12:23:43;;;;;;;22.50;20.67;;;22.30;99.90;;;;;;5246841;28;20029;-71
2023/05/21 12:26:14;;;;;;;22.23;20.38;;;22.00;99.90;;;;;;5246850;28;20414;-70
2023/05/21 12:28:44;;;;;;;22.15;20.25;;;21.90;99.90;;;;;;5246831;28;20103;-70
2023/05/21 12:31:15;;;;;;;25.17;23.33;;;22.00;99.90;;;;;;5246985;28;20540;-71
2023/05/21 12:33:53;;;;;;;23.63;21.20;;;22.10;99.90;;;;;;5249077;28;20055;-70
2023/05/21 12:36:30;;;;;;;23.95;21.67;;;22.30;99.90;;;;;;5262840;28;20033;-71
2023/05/21 12:39:01;;;;;;;23.50;21.38;;;22.00;99.90;;;;;;5250552;28;20364;-67
2023/05/21 12:41:32;;;;;;;23.05;21.23;;;21.90;99.90;;;;;;5250604;28;20029;-70
2023/05/21 12:44:04;;;;;;;26.58;24.40;;;21.70;99.90;;;;;;5250544;28;20028;-71
2023/05/21 12:46:35;;;;;;;25.63;23.48;;;22.00;99.90;;;;;;5250539;28;20028;-71
2023/05/21 12:49:07;;;;;;;22.75;20.95;;;22.10;99.90;;;;;;5250122;28;20055;-70
2023/05/21 12:51:38;;;;;;;23.83;21.63;;;22.10;99.90;;;;;;5250463;28;20040;-70
2023/05/21 12:54:12;;;;;;;23.55;21.08;;;22.00;99.90;;;;;;5250342;28;20078;-70
2023/05/21 12:56:44;;;;;;;23.25;21.13;;;21.60;99.90;;;;;;5250378;28;20025;-67